Aérodrome :
LOGIN :

S'inscrire | Disclaimer

   EN    FR    IT 

 










Légende :    VFR   VFR Marginal   IFR   IFR Intensif   IFR Très Intensif
Visi : 
Plafond : 
>= 8 km
>= 3000ft
5 à 8 km
1000 à 3000 ft
1500m à 5 km
500 à 1000 ft
800 à 1500m
200 à 500 ft
< 800m
< 200 ft
Symboles :   Orages  Brouillard  Fortes neiges  Fortes précipitations  Vent > 20 kt
SIGMETs :   Divers  Orages  Givrage  Turbulence  Onde Orograph.  Cendres Volcan.







- Altitude de l'aérodrome : 53 ft
- Code IATA : LBC


EDHL - Lübeck

DERNIER METAR :
  • 231320Z VRB02KT 9999 FEW018 BKN100 12/08 Q1010

METARs EXPIRÉS :
  • 231250Z 24003KT 210V300 9999 FEW020 BKN100 13/08 Q1010
  • 231220Z 21003KT 160V250 9999 FEW019 BKN100 13/08 Q1010
  • 231150Z VRB01KT 9999 FEW020 BKN110 13/08 Q1011
  • 231120Z 23003KT 180V330 9999 FEW017 BKN110 13/08 Q1011
  • 231050Z VRB03KT 9999 SCT017 OVC140 13/09 Q1011

TAF TAF EDHL
Valide du 23 à 12h jusqu'au 23 à 21h UTC


231100Z 2312/2321 24007KT 9999 BKN025
BECMG 2315/2318 30010KT
Pas de NOTAMs connus pour ce terrain.



MET'MAP, la Météo Aéronautique d'un coup d'oeil ! - Copyright ORBIFLY Décembre 2007 - Disclaimer

ORBIFLY MET'MAP TEAM :

Programmation & Développement : Alexandra Zaïnal
Conception & Développement : Baudouin d'Aumeries
Co-Programmation & Développement : Marc-Olivier Méhu
Soutien technique & logistique : Manuel Goepfert

Contact : metmap@orbifly.com




SOURCES & CREDITS :

   NOAA